Estancia La Primavera, Argentina
Current Conditions -  °F | °C
As of 9:00 PM on Monday 24 Nov 2014 (Local Time) from SAZN Reporting Station
Clear Clear  
Wind Chill: 21°   Ceiling: Unl
Heat Index: 21°   Visibility: 6mi
Dew Point:   Wind: 2mph
Humidity: 27%   Direction: 230°SW
Pressure: 29.91"   Gusts: NA
Location:  38.48°S, 67.46°W
Report Text: SAZN 250000Z 23002KT CAVOK 21/01 Q1013
Loading
Personal Weather Stations






























Interactive Weather Map New forecast layout! Learn more

10-Day Weather Forecast

Advertisements
Track Severe Weather on mobile